Time;durP1;ratioP1;P1;durP2;ratioP2;P2;SDS_P1;SDS_P2;PMS_P1;PMS_P2;Temp;Humidity;BMP_temperature;BMP_pressure;BME280_temperature;BME280_humidity;BME280_pressure;Samples;Min_cycle;Max_cycle;Signal;HPM_P1;HPM_P2
2022/06/24 00:00:09;;;;;;;;;5.75;3.50;;;;;25.92;43.61;100534.34;5067308;28;46053;-66
2022/06/24 00:02:35;;;;;;;;;4.00;4.00;;;;;25.92;43.80;100534.34;5066705;28;45401;-67
2022/06/24 00:05:06;;;;;;;;;5.00;5.00;;;;;25.91;43.72;100531.81;5067530;28;45413;-67
2022/06/24 00:07:44;;;;;;;;;7.75;6.00;;;;;25.92;43.76;100547.84;5067471;28;45708;-72
2022/06/24 00:10:14;;;;;;;;;5.50;5.00;;;;;25.91;44.08;100548.88;5068214;27;46553;-68
2022/06/24 00:12:40;;;;;;;;;5.25;5.25;;;;;25.92;43.92;100547.84;5064938;28;45783;-68
2022/06/24 00:15:06;;;;;;;;;7.25;5.50;;;;;25.93;43.70;100548.66;5065924;28;45443;-67
2022/06/24 00:17:33;;;;;;;;;4.25;2.50;;;;;25.93;43.63;100551.38;5069096;28;45586;-70
2022/06/24 00:20:05;;;;;;;;;6.25;4.75;;;;;25.91;43.75;100556.97;5066881;28;45832;-68
2022/06/24 00:22:32;;;;;;;;;6.00;6.00;;;;;25.87;43.85;100556.50;5098598;27;45522;-68
2022/06/24 00:25:31;;;;;;;;;4.75;4.75;;;;;25.83;43.96;100557.94;5064662;28;45767;-67
2022/06/24 00:28:00;;;;;;;;;7.00;7.00;;;;;25.78;44.40;100554.97;5065075;28;45713;-69
2022/06/24 00:30:26;;;;;;;;;5.00;4.75;;;;;25.76;44.29;100554.34;5068788;28;45571;-73
2022/06/24 00:32:51;;;;;;;;;5.00;4.25;;;;;25.74;44.71;100551.00;5070760;28;45426;-68
2022/06/24 00:35:18;;;;;;;;;7.75;6.00;;;;;25.71;44.65;100551.38;5069816;28;45408;-69
2022/06/24 00:37:45;;;;;;;;;4.75;4.00;;;;;25.68;44.72;100553.63;5072086;28;45659;-66
2022/06/24 00:40:11;;;;;;;;;4.25;4.25;;;;;25.64;45.05;100550.47;5071498;28;45559;-67
2022/06/24 00:42:42;;;;;;;;;6.25;5.75;;;;;25.65;45.14;100553.97;5070543;28;45346;-67
2022/06/24 00:45:41;;;;;;;;;6.00;4.00;;;;;25.61;45.74;100554.38;5069819;28;45528;-66
2022/06/24 00:48:18;;;;;;;;;2.50;2.50;;;;;25.61;45.63;100557.09;5072507;28;45377;-66
2022/06/24 00:50:47;;;;;;;;;5.50;5.00;;;;;25.59;45.67;100555.59;5069733;27;46085;-66
2022/06/24 00:53:14;;;;;;;;;4.50;4.50;;;;;25.54;45.85;100558.03;5073908;28;45770;-66
2022/06/24 00:55:43;;;;;;;;;4.25;4.25;;;;;25.55;45.86;100559.72;5070240;28;45319;-66
2022/06/24 00:58:18;;;;;;;;;6.00;5.75;;;;;25.50;46.52;100556.75;5070304;28;45400;-66
2022/06/24 01:00:46;;;;;;;;;4.75;4.00;;;;;25.49;46.13;100557.78;5070645;27;45565;-67
2022/06/24 01:03:14;;;;;;;;;4.75;4.25;;;;;25.47;46.38;100566.06;5069665;28;45378;-67
2022/06/24 01:05:40;;;;;;;;;4.50;4.50;;;;;25.46;46.48;100550.09;5067659;28;45448;-67
2022/06/24 01:08:13;;;;;;;;;4.00;4.00;;;;;25.42;46.46;100548.78;5071819;28;45778;-66
2022/06/24 01:10:40;;;;;;;;;5.00;3.50;;;;;25.39;46.64;100547.31;5068896;27;46191;-67
2022/06/24 01:13:10;;;;;;;;;5.00;5.00;;;;;25.37;46.54;100545.84;5071885;28;45513;-66
2022/06/24 01:15:36;;;;;;;;;3.00;3.00;;;;;25.36;46.25;100545.00;5071131;28;45785;-67
2022/06/24 01:18:01;;;;;;;;;4.50;3.75;;;;;25.32;46.89;100541.00;5070579;28;45679;-67
2022/06/24 01:20:27;;;;;;;;;4.75;4.75;;;;;25.30;46.78;100538.53;5069058;27;45436;-67
2022/06/24 01:22:52;;;;;;;;;3.75;3.75;;;;;25.28;47.04;100535.19;5070036;27;45437;-67
2022/06/24 01:25:18;;;;;;;;;4.75;3.75;;;;;25.25;46.57;100534.72;5073605;28;45447;-67
2022/06/24 01:27:43;;;;;;;;;2.75;2.75;;;;;25.23;46.69;100534.09;5070760;28;45563;-67
2022/06/24 01:30:10;;;;;;;;;3.00;3.00;;;;;25.20;47.21;100529.06;5070417;28;46027;-67
2022/06/24 01:32:35;;;;;;;;;5.00;5.00;;;;;25.17;46.94;100530.28;5069953;28;45640;-67
2022/06/24 01:35:01;;;;;;;;;3.00;3.00;;;;;25.15;47.03;100528.81;5071655;28;45535;-67
2022/06/24 01:37:27;;;;;;;;;3.75;3.75;;;;;25.11;47.32;100528.34;5070007;28;45502;-67
2022/06/24 01:39:52;;;;;;;;;3.00;3.00;;;;;25.08;47.11;100525.22;5071917;27;45933;-66
2022/06/24 01:42:18;;;;;;;;;5.50;5.00;;;;;25.06;47.63;100533.50;5066398;28;45426;-67
2022/06/24 01:44:43;;;;;;;;;6.00;3.50;;;;;25.07;47.01;100545.09;5068991;28;45386;-67
2022/06/24 01:47:09;;;;;;;;;4.00;4.00;;;;;25.03;47.51;100547.31;5070511;28;45573;-67
2022/06/24 01:49:35;;;;;;;;;3.25;3.25;;;;;25.00;47.50;100559.31;5073248;28;45385;-66
2022/06/24 01:52:00;;;;;;;;;2.00;1.00;;;;;24.98;47.78;100572.13;5071765;28;45533;-66
2022/06/24 01:54:27;;;;;;;;;2.50;2.50;;;;;24.93;47.91;100573.72;5072261;28;45432;-66
2022/06/24 01:56:53;;;;;;;;;5.00;4.00;;;;;24.88;47.35;100574.28;5070551;27;45618;-66
2022/06/24 01:59:18;;;;;;;;;3.75;3.75;;;;;24.82;47.59;100569.66;5064899;28;46299;-67
2022/06/24 02:01:45;;;;;;;;;6.75;6.00;;;;;24.74;47.96;100578.66;5070630;28;45536;-66
2022/06/24 02:04:11;;;;;;;;;6.00;3.50;;;;;24.40;48.21;100581.91;5072498;28;45733;-67
2022/06/24 02:06:37;;;;;;;;;6.75;5.50;;;;;24.10;48.12;100582.88;5070197;28;45527;-67
2022/06/24 02:09:04;;;;;;;;;8.50;6.00;;;;;23.87;48.62;100561.38;5068885;27;45702;-68
2022/06/24 02:14:14;;;;;;;;;5.50;5.25;;;;;23.59;49.93;100553.00;5069659;28;45468;-65
2022/06/24 02:16:40;;;;;;;;;6.00;6.00;;;;;23.49;50.30;100561.31;5070192;28;45471;-65
2022/06/24 02:19:06;;;;;;;;;6.00;4.75;;;;;23.39;50.51;100561.56;5068868;27;46210;-65
2022/06/24 02:21:32;;;;;;;;;4.75;4.75;;;;;23.29;50.84;100555.56;5068592;28;45434;-64
2022/06/24 02:23:58;;;;;;;;;6.00;4.00;;;;;23.24;51.07;100549.06;5072752;28;45380;-64
2022/06/24 02:26:25;;;;;;;;;4.50;4.50;;;;;23.18;51.34;100547.91;5069342;28;45537;-64
2022/06/24 02:28:51;;;;;;;;;6.25;4.50;;;;;23.12;51.66;100560.19;5069106;28;46328;-64
2022/06/24 02:31:17;;;;;;;;;4.50;4.00;;;;;23.06;51.84;100555.53;5068822;28;45355;-64
2022/06/24 02:33:42;;;;;;;;;6.25;5.00;;;;;23.06;52.55;100560.88;5069601;28;45536;-65
2022/06/24 02:36:08;;;;;;;;;4.50;4.25;;;;;23.07;52.64;100567.13;5070835;28;45519;-65
2022/06/24 02:38:34;;;;;;;;;5.75;5.00;;;;;23.04;52.71;100573.69;5069224;28;45905;-65
2022/06/24 02:41:00;;;;;;;;;5.00;5.00;;;;;23.00;53.01;100577.75;5065535;28;45707;-65
2022/06/24 02:43:26;;;;;;;;;6.75;5.00;;;;;22.98;53.62;100577.06;5068372;28;45379;-65
2022/06/24 02:45:57;;;;;;;;;6.00;4.50;;;;;22.90;53.58;100568.19;5070493;28;45683;-65
2022/06/24 02:48:23;;;;;;;;;10.00;5.00;;;;;22.83;53.94;100546.56;5070837;28;45511;-65
2022/06/24 02:50:50;;;;;;;;;7.25;5.00;;;;;22.80;54.11;100536.16;5069559;28;45721;-65
2022/06/24 02:53:17;;;;;;;;;4.50;4.50;;;;;22.75;54.71;100527.78;5070909;28;45520;-65
2022/06/24 02:55:44;;;;;;;;;5.75;5.75;;;;;22.70;54.81;100524.81;5068866;28;45700;-65
2022/06/24 02:58:09;;;;;;;;;4.50;4.25;;;;;22.61;54.77;100529.38;5070669;28;45488;-64
2022/06/24 03:00:35;;;;;;;;;4.00;4.00;;;;;22.55;55.04;100530.06;5068590;27;45381;-65
2022/06/24 03:03:01;;;;;;;;;4.75;4.75;;;;;22.51;55.49;100524.22;5069063;28;45362;-64
2022/06/24 03:05:27;;;;;;;;;4.75;3.00;;;;;22.51;55.50;100528.72;5067412;28;45562;-65
2022/06/24 03:07:53;;;;;;;;;5.00;5.00;;;;;22.49;55.99;100530.75;5070214;28;45744;-65
2022/06/24 03:10:19;;;;;;;;;4.00;4.00;;;;;22.44;55.80;100533.13;5069252;28;45375;-65
2022/06/24 03:12:45;;;;;;;;;6.75;5.50;;;;;22.39;56.27;100530.94;5070047;27;45494;-64
2022/06/24 03:15:10;;;;;;;;;4.50;3.50;;;;;22.39;56.48;100528.28;5068291;28;45699;-65
2022/06/24 03:17:37;;;;;;;;;4.75;4.75;;;;;22.41;56.26;100526.25;5068257;28;46011;-65
2022/06/24 03:20:04;;;;;;;;;5.25;5.00;;;;;22.40;56.98;100521.06;5068440;27;45860;-62
2022/06/24 03:22:30;;;;;;;;;4.00;4.00;;;;;22.39;56.71;100525.59;5070711;28;45449;-65
2022/06/24 03:24:55;;;;;;;;;4.25;4.25;;;;;22.39;57.37;100519.38;5069316;28;45460;-66
2022/06/24 03:27:21;;;;;;;;;4.50;4.50;;;;;22.39;57.58;100522.06;5069228;28;45495;-66
2022/06/24 03:29:47;;;;;;;;;4.75;4.75;;;;;22.40;57.71;100516.53;5067980;28;45719;-65
2022/06/24 03:32:13;;;;;;;;;5.00;5.00;;;;;22.39;58.13;100522.06;5067600;28;45522;-65
2022/06/24 03:34:39;;;;;;;;;5.00;5.00;;;;;22.40;58.00;100515.69;5069912;28;45537;-65
2022/06/24 03:37:04;;;;;;;;;4.00;4.00;;;;;22.36;58.01;100517.88;5069412;28;45480;-65
2022/06/24 03:39:30;;;;;;;;;4.50;4.00;;;;;22.32;58.13;100521.06;5067702;27;45694;-65
2022/06/24 03:41:55;;;;;;;;;5.75;5.75;;;;;22.28;58.37;100524.13;5067656;28;45472;-65
2022/06/24 03:44:21;;;;;;;;;6.00;5.50;;;;;22.26;58.42;100523.44;5070409;28;45696;-70
2022/06/24 03:46:46;;;;;;;;;5.25;5.25;;;;;22.22;58.61;100515.91;5069668;28;45860;-70
2022/06/24 03:49:11;;;;;;;;;7.50;5.00;;;;;22.19;58.94;100517.06;5067774;28;46026;-70
2022/06/24 03:51:37;;;;;;;;;5.00;4.00;;;;;22.16;58.76;100517.44;5068044;28;45690;-70
2022/06/24 03:54:02;;;;;;;;;3.75;3.75;;;;;22.14;58.88;100511.41;5070226;28;45497;-69
2022/06/24 03:56:28;;;;;;;;;5.00;4.00;;;;;22.10;59.01;100523.47;5069899;28;46182;-70
2022/06/24 03:58:54;;;;;;;;;3.00;3.00;;;;;22.07;58.85;100520.28;5068583;27;45433;-70
2022/06/24 04:01:19;;;;;;;;;7.00;5.00;;;;;22.05;58.89;100516.94;5068944;28;45495;-69
2022/06/24 04:03:45;;;;;;;;;5.75;4.50;;;;;22.00;59.06;100512.91;5066820;28;45728;-70
2022/06/24 04:06:10;;;;;;;;;4.00;3.00;;;;;21.98;58.85;100511.41;5068228;28;45516;-69
2022/06/24 04:08:36;;;;;;;;;4.75;4.00;;;;;21.96;59.30;100510.72;5068548;28;45293;-67
2022/06/24 04:11:16;;;;;;;;;5.25;4.00;;;;;21.96;59.31;100503.53;5068747;28;45568;-67
2022/06/24 04:13:42;;;;;;;;;3.00;3.00;;;;;21.97;59.48;100507.06;5064163;28;45546;-68
2022/06/24 04:16:07;;;;;;;;;4.00;3.25;;;;;21.94;59.59;100521.63;5068416;28;46086;-68
2022/06/24 04:18:33;;;;;;;;;4.75;4.75;;;;;21.92;59.56;100523.66;5065905;28;45519;-68
2022/06/24 04:20:59;;;;;;;;;6.50;5.25;;;;;21.90;59.50;100531.03;5067407;28;45454;-68
2022/06/24 04:23:25;;;;;;;;;4.50;4.50;;;;;21.88;59.73;100519.63;5069597;28;45479;-68
2022/06/24 04:25:52;;;;;;;;;4.50;4.50;;;;;21.90;59.98;100522.97;5068842;28;45581;-68
2022/06/24 04:28:17;;;;;;;;;3.75;3.75;;;;;21.92;60.09;100526.31;5066875;28;45391;-68
2022/06/24 04:30:44;;;;;;;;;6.50;5.25;;;;;21.93;60.15;100529.84;5067932;28;45406;-68
2022/06/24 04:33:09;;;;;;;;;6.75;5.00;;;;;21.92;60.39;100526.31;5067638;28;45370;-68
2022/06/24 04:35:35;;;;;;;;;4.75;4.75;;;;;21.92;60.46;100528.16;5069359;28;45461;-67
2022/06/24 04:38:01;;;;;;;;;5.00;5.00;;;;;21.89;60.69;100525.84;5065301;28;45449;-68
2022/06/24 04:40:27;;;;;;;;;4.75;4.75;;;;;21.91;60.65;100523.81;5067989;28;45403;-68
2022/06/24 04:42:52;;;;;;;;;5.75;5.75;;;;;21.93;60.73;100527.16;5067950;28;45733;-69
2022/06/24 04:45:18;;;;;;;;;6.75;6.00;;;;;21.98;60.92;100527.50;5068795;28;45982;-68
2022/06/24 04:47:44;;;;;;;;;6.50;6.50;;;;;22.04;61.06;100532.19;5069120;28;45479;-68
2022/06/24 04:50:09;;;;;;;;;7.50;4.25;;;;;22.08;61.17;100536.22;5068949;28;45391;-68
2022/06/24 04:52:36;;;;;;;;;8.00;7.00;;;;;22.12;61.08;100526.84;5068311;28;45329;-67
2022/06/24 04:55:03;;;;;;;;;5.00;4.75;;;;;22.16;61.19;100530.00;5064071;28;45959;-68
2022/06/24 04:57:29;;;;;;;;;3.50;3.50;;;;;22.19;61.13;100527.81;5065071;27;45604;-69
2022/06/24 04:59:54;;;;;;;;;6.25;4.75;;;;;22.21;61.00;100517.75;5069070;28;45753;-68
2022/06/24 05:02:20;;;;;;;;;7.25;4.00;;;;;22.23;61.30;100523.78;5067047;28;45524;-68
2022/06/24 05:04:46;;;;;;;;;3.50;3.50;;;;;22.24;61.37;100517.41;5067719;28;45979;-69
2022/06/24 05:07:12;;;;;;;;;6.25;6.00;;;;;22.22;61.14;100516.75;5065271;28;45459;-68
2022/06/24 05:09:38;;;;;;;;;6.25;5.25;;;;;22.20;61.15;100526.00;5068398;28;45501;-68
2022/06/24 05:12:04;;;;;;;;;6.25;6.25;;;;;22.17;60.98;100521.78;5068418;28;45464;-68
2022/06/24 05:14:29;;;;;;;;;7.00;5.00;;;;;22.14;61.17;100524.81;5067606;28;46457;-68
2022/06/24 05:16:56;;;;;;;;;6.25;5.50;;;;;22.14;61.07;100529.34;5065280;27;45504;-68
2022/06/24 05:19:21;;;;;;;;;6.75;5.00;;;;;22.12;60.64;100529.53;5069146;27;45483;-68
2022/06/24 05:21:47;;;;;;;;;7.25;5.75;;;;;22.10;60.93;100536.06;5072476;28;45365;-69
2022/06/24 05:24:12;;;;;;;;;4.75;3.75;;;;;22.07;60.91;100534.53;5070779;28;45704;-69
2022/06/24 05:26:41;;;;;;;;;8.00;6.00;;;;;22.07;60.74;100536.38;5069924;28;45614;-66
2022/06/24 05:29:06;;;;;;;;;7.75;6.75;;;;;22.08;61.00;100527.34;5073465;28;45387;-66
2022/06/24 05:31:32;;;;;;;;;6.00;4.75;;;;;22.05;60.77;100522.28;5076424;28;45375;-66
2022/06/24 05:33:57;;;;;;;;;7.50;5.50;;;;;22.03;61.00;100528.66;5063161;28;46080;-65
2022/06/24 05:36:22;;;;;;;;;10.00;5.75;;;;;22.02;61.00;100526.97;5070513;28;45709;-69
2022/06/24 05:38:48;;;;;;;;;5.00;5.00;;;;;22.10;61.01;100528.84;5063358;28;45257;-65
2022/06/24 05:41:13;;;;;;;;;7.00;7.00;;;;;22.18;60.83;100528.81;5065840;28;45256;-68
2022/06/24 05:43:39;;;;;;;;;6.00;6.00;;;;;22.25;61.07;100527.13;5062964;28;45422;-67
2022/06/24 05:46:04;;;;;;;;;6.00;6.00;;;;;22.39;61.24;100539.00;5062555;28;45407;-62
2022/06/24 05:48:30;;;;;;;;;5.75;5.25;;;;;22.43;60.88;100537.63;5062940;28;45240;-63
2022/06/24 05:50:56;;;;;;;;;5.50;4.00;;;;;22.44;61.04;100535.81;5062998;28;45250;-64
2022/06/24 05:56:06;;;;;;;;;6.00;6.00;;;;;22.43;61.03;100532.25;5062341;28;45407;-62
2022/06/24 05:58:32;;;;;;;;;6.75;6.25;;;;;22.40;60.99;100540.69;5062786;28;45181;-64
2022/06/24 06:00:57;;;;;;;;;3.75;3.75;;;;;22.37;60.73;100548.25;5062676;28;45251;-64
2022/06/24 06:03:25;;;;;;;;;7.00;7.00;;;;;22.35;60.76;100542.19;5062637;28;45486;-64
2022/06/24 06:05:50;;;;;;;;;8.75;7.00;;;;;22.29;60.67;100547.25;5062762;28;45487;-65
2022/06/24 06:08:17;;;;;;;;;7.00;7.00;;;;;22.21;60.65;100544.59;5062795;28;45246;-64
2022/06/24 06:10:43;;;;;;;;;8.00;6.00;;;;;22.17;60.74;100550.47;5062455;28;45561;-64
2022/06/24 06:13:10;;;;;;;;;6.00;6.00;;;;;22.11;60.92;100548.44;5062641;28;46548;-62
2022/06/24 06:15:36;;;;;;;;;6.00;6.00;;;;;22.10;60.68;100549.47;5072324;28;45447;-64
2022/06/24 06:18:01;;;;;;;;;6.00;5.00;;;;;22.09;60.77;100548.63;5061380;28;45311;-64
2022/06/24 06:20:27;;;;;;;;;6.75;5.75;;;;;22.11;60.59;100561.88;5060117;28;45557;-64
2022/06/24 06:22:53;;;;;;;;;7.25;5.75;;;;;22.10;60.86;100555.66;5062255;28;45386;-61
2022/06/24 06:25:18;;;;;;;;;7.00;5.50;;;;;22.09;60.73;100559.34;5061512;28;45239;-61
2022/06/24 06:27:44;;;;;;;;;4.50;4.50;;;;;22.10;61.06;100558.34;5061793;28;45221;-61
2022/06/24 06:30:10;;;;;;;;;5.25;5.25;;;;;22.12;60.84;100567.09;5062290;28;45236;-61
2022/06/24 06:32:36;;;;;;;;;6.00;6.00;;;;;22.13;60.75;100565.25;5061966;28;45342;-60
2022/06/24 06:35:03;;;;;;;;;5.00;5.00;;;;;22.13;60.93;100562.56;5062272;28;45228;-60
2022/06/24 06:37:28;;;;;;;;;5.75;5.00;;;;;22.13;60.59;100566.06;5062429;28;45315;-60
2022/06/24 06:39:54;;;;;;;;;7.25;5.75;;;;;22.14;60.68;100569.59;5061800;28;45379;-60
2022/06/24 06:42:19;;;;;;;;;9.25;5.50;;;;;22.13;60.80;100566.06;5062009;28;45362;-60
2022/06/24 06:44:45;;;;;;;;;5.25;4.75;;;;;22.14;60.61;100567.75;5062076;28;45178;-61
2022/06/24 06:47:10;;;;;;;;;4.75;4.25;;;;;22.16;60.85;100565.72;5062223;28;45385;-60
2022/06/24 06:49:36;;;;;;;;;7.50;6.00;;;;;22.19;60.61;100561.84;5062111;28;45215;-60
2022/06/24 06:52:02;;;;;;;;;7.50;6.25;;;;;22.21;60.55;100568.75;5063020;28;45425;-61
2022/06/24 06:54:29;;;;;;;;;5.25;5.00;;;;;22.22;60.48;100566.91;5064176;28;45267;-60
2022/06/24 06:56:56;;;;;;;;;5.25;5.25;;;;;22.25;60.52;100572.75;5062001;28;45308;-60
2022/06/24 06:59:21;;;;;;;;;8.00;5.00;;;;;22.28;60.42;100571.59;5061907;28;45348;-60
2022/06/24 07:01:47;;;;;;;;;7.00;5.00;;;;;22.31;60.69;100565.88;5061885;28;45332;-60
2022/06/24 07:04:12;;;;;;;;;6.75;5.75;;;;;22.34;60.32;100564.66;5061711;28;45382;-60
2022/06/24 07:06:38;;;;;;;;;5.00;5.00;;;;;22.36;60.60;100565.38;5061911;28;45433;-60
2022/06/24 07:09:03;;;;;;;;;5.75;4.25;;;;;22.35;60.26;100574.41;5061354;28;45663;-60
2022/06/24 07:11:29;;;;;;;;;6.00;5.00;;;;;22.32;60.23;100575.59;5061710;28;45894;-60
2022/06/24 07:13:57;;;;;;;;;5.25;5.25;;;;;22.33;60.22;100571.88;5061564;28;45456;-60
2022/06/24 07:16:23;;;;;;;;;5.25;5.25;;;;;22.37;60.24;100569.72;5061897;28;45369;-60
2022/06/24 07:18:48;;;;;;;;;4.25;4.00;;;;;22.39;60.28;100573.91;5061525;28;45556;-61
2022/06/24 07:21:14;;;;;;;;;4.75;4.00;;;;;22.39;60.27;100562.31;5061526;28;46552;-61
2022/06/24 07:23:40;;;;;;;;;3.50;3.50;;;;;22.39;60.49;100559.63;5060081;28;45177;-60
2022/06/24 07:26:06;;;;;;;;;6.25;6.00;;;;;22.41;60.34;100558.44;5061474;28;45323;-61
2022/06/24 07:28:37;;;;;;;;;5.50;4.75;;;;;22.41;60.07;100557.63;5061593;28;45608;-61
2022/06/24 07:31:16;;;;;;;;;4.00;3.75;;;;;22.43;60.12;100555.59;5061270;28;45287;-61
2022/06/24 07:33:42;;;;;;;;;5.50;5.00;;;;;22.43;60.05;100548.38;5061373;28;45449;-61
2022/06/24 07:36:07;;;;;;;;;7.75;6.00;;;;;22.46;60.03;100547.22;5061391;28;45353;-61
2022/06/24 07:38:33;;;;;;;;;6.00;5.00;;;;;22.51;60.08;100552.88;5061395;28;45647;-60
2022/06/24 07:40:58;;;;;;;;;6.00;4.25;;;;;22.54;59.68;100552.56;5060045;28;45902;-61
2022/06/24 07:43:24;;;;;;;;;6.00;5.50;;;;;22.63;59.74;100554.19;5061658;28;45411;-61
2022/06/24 07:45:51;;;;;;;;;5.75;5.75;;;;;22.71;59.59;100556.84;5061421;28;45437;-61
2022/06/24 07:48:16;;;;;;;;;5.75;5.00;;;;;22.79;59.82;100548.75;5061458;28;45218;-60
2022/06/24 07:50:42;;;;;;;;;5.75;5.00;;;;;22.90;59.93;100547.53;5060966;28;45394;-60
2022/06/24 07:53:07;;;;;;;;;4.00;4.00;;;;;23.01;59.76;100552.53;5064221;28;45369;-61
2022/06/24 07:58:17;;;;;;;;;7.75;4.75;;;;;23.13;59.43;100545.75;5061479;28;45157;-60
2022/06/24 08:00:42;;;;;;;;;5.75;4.00;;;;;23.15;59.42;100545.59;5060673;28;45327;-61
2022/06/24 08:03:08;;;;;;;;;3.00;3.00;;;;;23.14;59.20;100546.56;5060842;28;45204;-60
2022/06/24 08:05:33;;;;;;;;;7.00;4.75;;;;;23.13;58.94;100544.91;5061075;28;45202;-60
2022/06/24 08:07:59;;;;;;;;;4.75;4.00;;;;;23.11;58.78;100545.09;5061475;28;45158;-60
2022/06/24 08:10:24;;;;;;;;;6.00;4.00;;;;;23.14;58.61;100535.81;5060616;28;46031;-61
2022/06/24 08:12:50;;;;;;;;;5.75;4.25;;;;;23.17;58.85;100535.50;5061211;28;45216;-60
2022/06/24 08:15:17;;;;;;;;;5.00;4.25;;;;;23.15;58.40;100542.06;5060865;28;45268;-61
2022/06/24 08:17:43;;;;;;;;;5.50;4.00;;;;;23.08;58.28;100544.63;5061384;28;45390;-61
2022/06/24 08:20:09;;;;;;;;;3.50;3.00;;;;;23.02;58.43;100556.91;5060717;28;45287;-61
2022/06/24 08:22:34;;;;;;;;;6.75;5.25;;;;;22.99;58.41;100557.25;5061058;28;45329;-60
2022/06/24 08:25:01;;;;;;;;;6.00;6.00;;;;;22.98;58.33;100552.88;5060549;28;45486;-60
2022/06/24 08:27:27;;;;;;;;;10.75;6.50;;;;;23.01;58.17;100552.53;5060950;28;45448;-60
2022/06/24 08:29:52;;;;;;;;;6.75;6.75;;;;;23.05;57.99;100561.91;5060551;28;46166;-60
2022/06/24 08:32:18;;;;;;;;;6.25;5.00;;;;;23.12;58.25;100552.13;5060874;28;45236;-61
2022/06/24 08:34:44;;;;;;;;;5.50;4.50;;;;;23.18;58.20;100549.75;5060708;28;45402;-61
2022/06/24 08:37:09;;;;;;;;;3.00;1.00;;;;;23.23;57.58;100545.53;5060787;28;45508;-61
2022/06/24 08:39:35;;;;;;;;;5.75;5.00;;;;;23.30;58.17;100546.50;5060207;28;45422;-61
2022/06/24 08:42:03;;;;;;;;;6.00;5.00;;;;;23.35;57.82;100535.19;5060582;28;45466;-61
2022/06/24 08:44:28;;;;;;;;;5.00;3.75;;;;;23.43;57.61;100537.00;5060844;28;45297;-60
2022/06/24 08:46:54;;;;;;;;;5.25;4.75;;;;;23.47;57.36;100541.84;5059435;28;45500;-60
2022/06/24 08:49:20;;;;;;;;;5.00;5.00;;;;;23.47;57.28;100538.31;5060391;28;45929;-60
2022/06/24 08:51:46;;;;;;;;;6.00;5.00;;;;;23.44;57.29;100541.34;5062942;28;45291;-60
2022/06/24 08:54:16;;;;;;;;;5.00;4.00;;;;;23.47;57.14;100546.38;5067402;28;45497;-60
2022/06/24 08:56:42;;;;;;;;;3.75;3.00;;;;;23.48;57.04;100542.69;5064047;28;45298;-60
2022/06/24 08:59:07;;;;;;;;;3.50;3.50;;;;;23.50;57.01;100532.56;5063811;28;45368;-60
2022/06/24 09:01:40;;;;;;;;;3.00;3.00;;;;;23.55;57.19;100531.03;5063974;28;45225;-60
2022/06/24 09:04:05;;;;;;;;;4.50;3.50;;;;;23.63;56.63;100531.00;5063850;28;45379;-61
2022/06/24 09:06:38;;;;;;;;;4.00;4.00;;;;;23.67;56.49;100534.13;5063782;28;45386;-60
2022/06/24 09:09:03;;;;;;;;;3.00;3.00;;;;;23.62;56.46;100523.06;5063438;28;45363;-61
2022/06/24 09:11:39;;;;;;;;;3.75;2.00;;;;;23.58;56.49;100511.00;5063601;28;45236;-60
2022/06/24 09:14:06;;;;;;;;;2.50;2.50;;;;;23.63;55.92;100525.63;5063951;28;45540;-60
2022/06/24 09:16:35;;;;;;;;;4.50;3.00;;;;;23.73;56.43;100519.13;5057743;28;45555;-60
2022/06/24 09:19:03;;;;;;;;;3.50;3.00;;;;;23.82;56.19;100513.50;5056918;28;45395;-61
2022/06/24 09:21:41;;;;;;;;;2.00;2.00;;;;;23.91;55.83;100503.50;5062501;28;45466;-60
2022/06/24 09:24:08;;;;;;;;;3.00;3.00;;;;;24.01;55.80;100503.22;5062224;28;45290;-60
2022/06/24 09:26:44;;;;;;;;;3.25;2.00;;;;;23.99;55.74;100503.41;5057945;28;45726;-60
2022/06/24 09:29:12;;;;;;;;;4.00;3.00;;;;;23.93;55.41;100496.91;5054511;28;45325;-60
2022/06/24 09:31:39;;;;;;;;;3.25;2.00;;;;;23.96;55.24;100493.03;5062944;28;45480;-60
2022/06/24 09:34:13;;;;;;;;;3.75;3.00;;;;;23.94;55.14;100487.00;5061032;28;45483;-60
2022/06/24 09:36:43;;;;;;;;;3.25;2.25;;;;;23.86;54.80;100493.31;5063210;28;45394;-60
2022/06/24 09:39:12;;;;;;;;;3.00;2.00;;;;;23.87;54.78;100486.06;5062659;28;46047;-60
2022/06/24 09:41:49;;;;;;;;;3.00;3.00;;;;;23.88;55.37;100477.81;5062892;28;45501;-59
2022/06/24 09:44:16;;;;;;;;;4.00;2.00;;;;;23.92;55.25;100480.94;5063338;28;45410;-60
2022/06/24 09:46:41;;;;;;;;;3.00;3.00;;;;;24.00;54.91;100470.09;5061509;28;45546;-60
2022/06/24 09:49:11;;;;;;;;;3.00;3.00;;;;;24.14;55.14;100479.19;5062848;28;45357;-60
2022/06/24 09:51:39;;;;;;;;;1.00;1.00;;;;;24.21;55.08;100480.13;5052099;28;45326;-60
2022/06/24 09:54:05;;;;;;;;;2.00;1.00;;;;;24.22;54.26;100471.88;5072216;28;45260;-60
2022/06/24 09:56:31;;;;;;;;;2.00;2.00;;;;;24.32;54.73;100474.31;5062460;28;45293;-60
2022/06/24 10:01:42;;;;;;;;;1.50;1.00;;;;;24.59;53.83;100469.28;5058958;28;45351;-59
2022/06/24 10:04:15;;;;;;;;;3.75;1.00;;;;;24.77;53.96;100473.22;5060830;28;45263;-60
2022/06/24 10:06:49;;;;;;;;;1.50;1.50;;;;;24.96;54.17;100470.91;5061848;28;45325;-59
2022/06/24 10:09:22;;;;;;;;;1.00;1.00;;;;;25.07;53.37;100473.16;5062125;28;46104;-60
2022/06/24 10:11:49;;;;;;;;;1.00;1.00;;;;;25.14;53.80;100473.22;5062603;28;45327;-60
2022/06/24 10:14:15;;;;;;;;;2.00;1.75;;;;;25.10;53.16;100471.94;5057038;28;45279;-60
2022/06/24 10:16:42;;;;;;;;;1.00;1.00;;;;;25.00;53.10;100474.91;5061409;28;45559;-59
2022/06/24 10:19:10;;;;;;;;;2.00;0.00;;;;;24.88;52.85;100477.25;5061227;28;45422;-58
2022/06/24 10:21:36;;;;;;;;;2.00;2.00;;;;;24.87;52.37;100474.75;5060095;28;45473;-59
2022/06/24 10:24:14;;;;;;;;;2.00;1.00;;;;;24.85;52.64;100472.25;5061112;28;46281;-59
2022/06/24 10:26:42;;;;;;;;;1.00;0.00;;;;;24.85;52.60;100456.09;5058054;28;45160;-59
2022/06/24 10:29:08;;;;;;;;;2.75;1.00;;;;;24.82;52.07;100469.97;5061077;28;45385;-59
2022/06/24 10:31:43;;;;;;;;;1.75;1.50;;;;;24.82;52.02;100471.81;5061061;28;45397;-59
2022/06/24 10:34:30;;;;;;;;;1.25;1.25;;;;;24.83;51.92;100463.53;5062430;28;45324;-59
2022/06/24 10:37:12;;;;;;;;;2.00;2.00;;;;;24.94;52.31;100467.59;5054132;28;45190;-59
2022/06/24 10:39:56;;;;;;;;;2.25;1.00;;;;;25.03;52.46;100456.53;5061695;28;45413;-59
2022/06/24 10:42:24;;;;;;;;;1.50;1.50;;;;;25.20;51.75;100456.25;5062061;28;45394;-59
2022/06/24 10:45:03;;;;;;;;;1.00;1.00;;;;;25.42;52.02;100451.69;5061981;28;45477;-58
2022/06/24 10:47:37;;;;;;;;;1.75;1.75;;;;;25.62;52.19;100447.31;5061819;28;45450;-58
2022/06/24 10:50:06;;;;;;;;;1.25;1.25;;;;;25.73;51.75;100446.78;5061863;28;46040;-58
2022/06/24 10:52:51;;;;;;;;;1.00;1.00;;;;;25.91;51.45;100440.06;5064270;28;45323;-59
2022/06/24 10:55:28;;;;;;;;;2.50;2.00;;;;;26.07;51.51;100437.91;5061161;28;45427;-61
2022/06/24 10:57:55;;;;;;;;;1.00;1.00;;;;;26.25;51.23;100436.53;5053280;28;45249;-61
2022/06/24 11:00:23;;;;;;;;;2.75;2.00;;;;;26.31;50.70;100446.53;5060662;28;46166;-61
2022/06/24 11:02:57;;;;;;;;;2.00;2.00;;;;;26.23;50.60;100433.16;5060668;28;45287;-59
2022/06/24 11:05:25;;;;;;;;;2.00;0.75;;;;;26.16;50.54;100442.09;5059753;28;45301;-59
2022/06/24 11:07:51;;;;;;;;;1.00;1.00;;;;;26.04;50.38;100434.75;5060064;28;45291;-59
2022/06/24 11:10:26;;;;;;;;;1.25;1.25;;;;;25.88;50.22;100435.88;5060438;28;45345;-59
2022/06/24 11:12:59;;;;;;;;;1.00;1.00;;;;;25.74;50.06;100436.81;5060623;28;45524;-59
2022/06/24 11:15:42;;;;;;;;;0.25;0.25;;;;;25.61;49.89;100443.78;5053871;28;45283;-60
2022/06/24 11:18:13;;;;;;;;;0.50;0.50;;;;;25.48;50.01;100432.88;5063583;28;45321;-60
2022/06/24 11:20:44;;;;;;;;;2.25;2.00;;;;;25.34;50.18;100441.88;5062926;28;46320;-59
2022/06/24 11:23:13;;;;;;;;;1.25;1.25;;;;;25.24;49.86;100450.31;5063553;28;45371;-60
2022/06/24 11:25:40;;;;;;;;;2.00;1.00;;;;;25.16;49.86;100449.59;5071301;28;46449;-59
2022/06/24 11:28:17;;;;;;;;;0.50;0.25;;;;;25.09;49.60;100452.22;5063805;28;45279;-61
2022/06/24 11:30:42;;;;;;;;;2.00;2.00;;;;;25.02;49.88;100446.75;5060968;28;45459;-59
2022/06/24 11:33:08;;;;;;;;;3.00;1.00;;;;;25.02;49.97;100448.59;5060703;28;45220;-60
2022/06/24 11:35:33;;;;;;;;;2.75;1.00;;;;;25.10;49.60;100447.69;5060687;28;45478;-62